Grandview on Hudson, New York
Current Conditions -  °F | °C
As of 8:56 AM on Wednesday 22 Oct 2014 (Local Time) from KHPN Reporting Station
Light Rain Light Rain  
Wind Chill: 12°   Ceiling: 1600
Heat Index: 12°   Visibility: 10mi
Dew Point:   Wind: 12mph
Humidity: 86%   Direction: 10°N
Pressure: 29.94"   Gusts: NA
Location:  41.0938°N, 73.9254°W
Report Text: KHPN 221256Z 01010KT 10SM -RA BKN016 BKN033 12/09 A2994 RMK AO2 RAE12B50 SLP140 P0001 T01170094
Loading
Personal Weather Stations






























Interactive Weather Map
Tropical Storm Tracking
New forecast layout! Learn more

10-Day Weather Forecast

Advertisements
Track Severe Weather on mobile